Airfield :
LOGIN :

Register | Disclaimer

   EN    FR    IT 

 










Legend :    VFR   Marginal VFR   IFR   Intensive IFR   Very Intensive IFR
Visi :
Ceiling :
>= 8 km
>= 3000ft
5 to 8 km
1000 to 3000 ft
1500m to 5 km
500 to 1000 ft
800 to 1500m
200 to 500 ft
< 800m
< 200 ft
Symbols :   Thunderstorms  Fog  Heavy snow  Heavy precipitations  Wind > 20 kt
SIGMETs :     Misc.  Thunderstorms  Icing  Turbulence  Mountain Waves  Volcanic Ashes






- Airport Elevation : 87 ft
- IATA code : FSC


LFKF - Figari

CURRENT METAR :
  • 240600Z AUTO 07007KT 030V110 9999 SCT017 BKN026 BKN034 14/11 Q1023 TEMPO BKN013 BKN045

EXPIRED METARs :
  • 240530Z AUTO 06006KT 030V090 9999 BKN019 BKN026 OVC046 13/11 Q1024 TEMPO BKN013 BKN045
  • 240500Z AUTO 05009KT 030V090 9999 BKN020 BKN028 OVC042 13/11 Q1024 TEMPO BKN013 BKN045
  • 240430Z AUTO 06007KT 040V100 9999 BKN020 BKN025 BKN030 13/11 Q1024 TEMPO BKN013 BKN045
  • 240400Z AUTO 07008KT 030V100 9999 BKN021 BKN026 BKN034 14/11 Q1024 TEMPO BKN013 BKN045
  • 240330Z AUTO 05010KT 9999 FEW018 SCT024 BKN029 14/11 Q1024 TEMPO BKN013 BKN045

TAF TAF LFKF
Valid from the 24 at 03:00 until the 25 at 03:00 UTC


240200Z 2403/2503 06010KT 9999 FEW013 BKN050
TEMPO 2403/2418 BKN013 BKN045
PROB40
TEMPO 2410/2418 RA BKN010 FEW035CB BKN040
BECMG 2420/2422 25010KT



MET'MAP, your aeronautical weather chart ! - Copyright ORBIFLY December 2007 - Disclaimer

ORBIFLY MET'MAP TEAM :

Programming & Development : Alexandra Zaïnal
Concept & original design : Baudouin d'Aumeries
Assistance for programming : Marc-Olivier Méhu
Technical & hardware support : Manuel Goepfert

Contact : metmap@orbifly.com




SOURCES & CREDITS :

   NOAA